Leamington, Ontario

10:24 PM EDT on July 23, 2014 (GMT -0400)
Kingsville Seacliff (IONKINGS2) Elev 614 ft | 42.03 °N, 82.70 °W | Change Station

Current weather conditions updated 5 seconds ago

Clear
Clear
62.1 °F
Feels Like 62.1 °F
N
7.3
Wind Variable Wind from NNE
Gusts 10.7 mph

Tomorrow is forecast to be Much Cooler than today.

Today
High -- | Low -- °F
--% Chance of Precip.
Yesterday
High -- | Low -- °F
Precip. -- in
6:15 AM 8:57 PM
Waning Crescent, 7% visible
Pressure 30.06 in
Visibility 10.0 miles
Clouds Clear
Dew Point 57 °F
Humidity 84%
Rainfall 2.06 in
Snow Depth Not available.
UV 0 out of 12
Pollen Not available.
Air Quality Not available.
Flu Activity Not available.
METAR KPCW 240213Z AUTO 04004KT 10SM CLR 17/14 A3006 RMK AO2 $

More Conditions Fewer Conditions

Pressure 30.06 in
Visibility 10.0 miles
Clouds Clear
Dew Point 57 °F
Humidity 84%
Rainfall 2.06 in
Snow Depth Not available.
UV 0 out of 12
Pollen Not available.
Air Quality Not available.
Flu Activity Not available.
METAR KPCW 240213Z AUTO 04004KT 10SM CLR 17/14 A3006 RMK AO2 $

More Conditions Fewer Conditions

10-Day Weather Forecast

Almanac

Astronomy

Jul. 23, 2014 Rise Set
Actual Time 6:15 AM EDT 8:57 PM EDT
Civil Twilight 5:42 AM EDT 9:29 PM EDT
Nautical Twilight 5:01 AM EDT 10:09 PM EDT
Astronomical Twilight 4:15 AM EDT 10:56 PM EDT
Moon 3:33 AM EDT (7/23) 6:24 PM EDT (7/23)
Length of Visible Light 15h 46m
Length of Day
14h 42m
Tomorrow will be 1m 50s shorter.
Waning Crescent, 7% of the Moon is Illuminated
Today
Waning Crescent
Jul 26
New
Aug 3
First Quarter
Aug 10
Full
Aug 17
Last Quarter

Today's Extremes

Country Highs Country Lows

Community

WunderPhotos

Upload Photos

1,736,853 photos uploaded!

Nearby

Snow Depth

Not available.

Earthquake Activity

City Distance Mag. Time & Date
No recent earthquake activity has been reported nearby.
Minimum magnitude displayed is 2.5.

Coastal Water Temperatures

Place Temperature
No Stations Reporting

Nearby Weather Stations

Station Location Temp. Dew Point Humidity Wind Precip. Elev Updated Type
MARITIME , Southeast Shoal 66 °F - - North  at  20 mph 0.00 in / hr 570 ft 8:50 PM EDT MADIS
Kingsville Seacliff, Kingsville 62.1 °F 57 °F 84% NNE  at  7.3 mph 0.00 in / hr 614 ft 10:24 PM EDT Rapid Fire
Kingsville Greenway, Kingsville 62.1 °F 58 °F 86% NNW  at  9.2 mph 0.00 in / hr 521 ft 9:24 PM CDT Rapid Fire
Kelleys Island Ohio, Kelleys Island, OH 63.1 °F 58 °F 85% ENE  at  0.0 mph 0.00 in / hr 600 ft 10:24 PM EDT Normal
wheatley/Comber, Leamington 61.0 °F 57 °F 88% NE  at  9.2 mph 0.00 in / hr 656 ft 10:23 PM EDT Normal
MARITIME , Put In Bay, OH 65 °F - - NNE  at  8 mph 0.00 in / hr 580 ft 9:00 PM EDT MADIS
Lakeside Marblehead, Lakeside Marblehead, OH 64.8 °F 60 °F 83% WNW  at  4.6 mph 0.00 in / hr 672 ft 10:24 PM EDT Rapid Fire

Show More Stations Show Fewer Stations